Time,TemperatureF,DewpointF,PressureIn,WindDirection,WindDirectionDegrees,WindSpeedMPH,WindSpeedGustMPH,Humidity,HourlyPrecipIn,Conditions,Clouds,dailyrainin,SoftwareType,DateUTC
2013-03-27 00:00:00,32.5,24.2,30.18,SW,225,0.0,-999.0,71,-99.99,,,0.00,Acu-Link.com,2013-03-27 04:00:00,
2013-03-27 00:15:00,31.8,23.8,30.19,SW,225,0.0,-999.0,72,-99.99,,,0.00,Acu-Link.com,2013-03-27 04:15:00,
2013-03-27 00:31:00,31.3,24.0,30.19,SW,225,0.0,-999.0,74,-99.99,,,0.00,Acu-Link.com,2013-03-27 04:31:00,
2013-03-27 00:46:00,30.6,24.6,30.19,SW,225,0.0,-999.0,78,-99.99,,,0.00,Acu-Link.com,2013-03-27 04:46:00,
2013-03-27 01:16:00,29.3,23.0,30.20,SW,225,0.0,-999.0,77,-99.99,,,0.00,Acu-Link.com,2013-03-27 05:16:00,
2013-03-27 01:32:00,28.8,23.1,30.20,SW,225,0.0,-999.0,79,-99.99,,,0.00,Acu-Link.com,2013-03-27 05:32:00,
2013-03-27 01:47:00,28.4,23.9,30.19,SSW,202,0.0,-999.0,83,-99.99,,,0.00,Acu-Link.com,2013-03-27 05:47:00,
2013-03-27 02:02:00,28.2,24.0,30.20,SSW,202,0.0,-999.0,84,-99.99,,,0.00,Acu-Link.com,2013-03-27 06:02:00,
2013-03-27 02:17:00,27.9,24.0,30.20,SSW,202,0.0,-999.0,85,-99.99,,,0.00,Acu-Link.com,2013-03-27 06:17:00,
2013-03-27 02:33:00,27.1,23.8,30.20,NNW,337,0.0,-999.0,87,-99.99,,,0.00,Acu-Link.com,2013-03-27 06:33:00,
2013-03-27 02:48:00,27.1,23.2,30.19,SW,225,0.0,-999.0,85,-99.99,,,0.00,Acu-Link.com,2013-03-27 06:48:00,
2013-03-27 03:03:00,26.8,23.5,30.19,SW,225,0.0,-999.0,87,-99.99,,,0.00,Acu-Link.com,2013-03-27 07:03:00,
2013-03-27 03:18:00,26.6,23.5,30.19,SSW,202,0.0,-999.0,88,-99.99,,,0.00,Acu-Link.com,2013-03-27 07:18:00,
2013-03-27 03:34:00,26.2,23.9,30.19,SSE,157,0.0,-999.0,91,-99.99,,,0.00,Acu-Link.com,2013-03-27 07:34:00,
2013-03-27 03:49:00,26.1,23.6,30.18,SSE,157,0.0,-999.0,90,-99.99,,,0.00,Acu-Link.com,2013-03-27 07:49:00,
2013-03-27 04:05:00,25.7,23.2,30.19,West,270,0.0,-999.0,90,-99.99,,,0.00,Acu-Link.com,2013-03-27 08:05:00,
2013-03-27 04:21:00,25.5,23.2,30.18,ESE,112,0.0,-999.0,91,-99.99,,,0.00,Acu-Link.com,2013-03-27 08:21:00,
2013-03-27 04:36:00,25.3,23.0,30.19,SW,225,0.0,-999.0,91,-99.99,,,0.00,Acu-Link.com,2013-03-27 08:36:00,
2013-03-27 05:21:00,24.8,23.3,30.20,South,180,0.0,-999.0,94,-99.99,,,0.00,Acu-Link.com,2013-03-27 09:21:00,
2013-03-27 05:37:00,24.4,22.7,30.20,West,270,0.0,-999.0,93,-99.99,,,0.00,Acu-Link.com,2013-03-27 09:37:00,
2013-03-27 05:52:00,24.3,23.3,30.21,SSW,202,0.0,-999.0,96,-99.99,,,0.00,Acu-Link.com,2013-03-27 09:52:00,
2013-03-27 06:07:00,23.7,22.2,30.21,WSW,247,0.0,-999.0,94,-99.99,,,0.00,Acu-Link.com,2013-03-27 10:07:00,
2013-03-27 06:23:00,23.7,22.0,30.21,South,180,0.0,-999.0,93,-99.99,,,0.00,Acu-Link.com,2013-03-27 10:23:00,
2013-03-27 06:38:00,23.5,21.8,30.22,SE,135,0.0,-999.0,93,-99.99,,,0.00,Acu-Link.com,2013-03-27 10:38:00,
2013-03-27 06:53:00,23.2,21.7,30.22,WSW,247,0.0,-999.0,94,-99.99,,,0.00,Acu-Link.com,2013-03-27 10:53:00,
2013-03-27 07:08:00,23.2,22.2,30.24,SW,225,0.0,-999.0,96,-99.99,,,0.00,Acu-Link.com,2013-03-27 11:08:00,
2013-03-27 07:24:00,23.2,22.5,30.24,SSE,157,0.0,-999.0,97,-99.99,,,0.00,Acu-Link.com,2013-03-27 11:24:00,
2013-03-27 07:39:00,23.0,21.8,30.24,SE,135,0.0,-999.0,95,-99.99,,,0.00,Acu-Link.com,2013-03-27 11:39:00,
2013-03-27 07:54:00,23.2,22.2,30.24,SE,135,0.0,-999.0,96,-99.99,,,0.00,Acu-Link.com,2013-03-27 11:54:00,
2013-03-27 08:09:00,23.4,22.7,30.25,North,0,0.0,-999.0,97,-99.99,,,0.00,Acu-Link.com,2013-03-27 12:09:00,
2013-03-27 08:25:00,24.8,24.3,30.25,NE,45,0.0,-999.0,98,-99.99,,,0.00,Acu-Link.com,2013-03-27 12:25:00,
2013-03-27 08:40:00,27.5,25.7,30.25,NE,45,0.0,-999.0,93,-99.99,,,0.00,Acu-Link.com,2013-03-27 12:40:00,
2013-03-27 08:56:00,30.6,26.9,30.25,NE,45,0.0,-999.0,86,-99.99,,,0.00,Acu-Link.com,2013-03-27 12:56:00,
2013-03-27 09:11:00,32.4,28.1,30.25,ESE,112,0.0,-999.0,84,-99.99,,,0.00,Acu-Link.com,2013-03-27 13:11:00,
2013-03-27 09:26:00,35.2,28.4,30.25,North,0,0.0,-999.0,76,-99.99,,,0.00,Acu-Link.com,2013-03-27 13:26:00,
2013-03-27 09:42:00,36.1,26.6,30.25,NW,315,1.7,-999.0,68,-99.99,,,0.00,Acu-Link.com,2013-03-27 13:42:00,
2013-03-27 09:57:00,38.3,26.8,30.26,WNW,292,2.7,-999.0,63,-99.99,,,0.00,Acu-Link.com,2013-03-27 13:57:00,
2013-03-27 10:12:00,39.9,25.9,30.27,WSW,247,1.7,-999.0,57,-99.99,,,0.00,Acu-Link.com,2013-03-27 14:12:00,
2013-03-27 10:28:00,39.9,24.6,30.26,NNE,22,0.0,-999.0,54,-99.99,,,0.00,Acu-Link.com,2013-03-27 14:28:00,
2013-03-27 10:43:00,41.4,24.6,30.27,NNE,22,2.7,-999.0,51,-99.99,,,0.00,Acu-Link.com,2013-03-27 14:43:00,
2013-03-27 10:58:00,43.0,23.1,30.26,NE,45,3.2,-999.0,45,-99.99,,,0.00,Acu-Link.com,2013-03-27 14:58:00,
2013-03-27 11:13:00,43.9,22.9,30.26,NW,315,3.7,-999.0,43,-99.99,,,0.00,Acu-Link.com,2013-03-27 15:13:00,
2013-03-27 11:28:00,44.1,21.9,30.26,NNW,337,2.7,-999.0,41,-99.99,,,0.00,Acu-Link.com,2013-03-27 15:28:00,
2013-03-27 11:44:00,46.0,22.4,30.26,NNW,337,3.7,-999.0,39,-99.99,,,0.00,Acu-Link.com,2013-03-27 15:44:00,
2013-03-27 11:59:00,45.9,21.7,30.26,SSE,157,2.2,-999.0,38,-99.99,,,0.00,Acu-Link.com,2013-03-27 15:59:00,
2013-03-27 12:14:00,48.0,22.3,30.25,NW,315,4.7,-999.0,36,-99.99,,,0.00,Acu-Link.com,2013-03-27 16:14:00,
2013-03-27 12:30:00,47.5,22.5,30.24,ENE,67,2.2,-999.0,37,-99.99,,,0.00,Acu-Link.com,2013-03-27 16:30:00,
2013-03-27 12:45:00,49.8,23.3,30.23,NNW,337,4.2,-999.0,35,-99.99,,,0.00,Acu-Link.com,2013-03-27 16:45:00,
2013-03-27 13:00:00,48.0,20.3,30.23,WSW,247,2.2,-999.0,33,-99.99,,,0.00,Acu-Link.com,2013-03-27 17:00:00,
2013-03-27 13:15:00,52.2,22.5,30.23,SSE,157,0.0,-999.0,31,-99.99,,,0.00,Acu-Link.com,2013-03-27 17:15:00,
2013-03-27 13:30:00,53.1,23.3,30.22,NNW,337,4.7,-999.0,31,-99.99,,,0.00,Acu-Link.com,2013-03-27 17:30:00,
2013-03-27 13:45:00,53.1,21.7,30.22,ESE,112,1.1,-999.0,29,-99.99,,,0.00,Acu-Link.com,2013-03-27 17:45:00,
2013-03-27 14:01:00,54.9,24.1,30.21,SSE,157,1.7,-999.0,30,-99.99,,,0.00,Acu-Link.com,2013-03-27 18:01:00,
2013-03-27 14:16:00,54.3,23.5,30.20,SE,135,2.7,-999.0,30,-99.99,,,0.00,Acu-Link.com,2013-03-27 18:16:00,
2013-03-27 14:31:00,55.2,23.5,30.19,South,180,1.1,-999.0,29,-99.99,,,0.00,Acu-Link.com,2013-03-27 18:31:00,
2013-03-27 14:47:00,55.9,24.9,30.19,SSW,202,1.1,-999.0,30,-99.99,,,0.00,Acu-Link.com,2013-03-27 18:47:00,
2013-03-27 15:02:00,55.4,23.7,30.18,NW,315,3.2,-999.0,29,-99.99,,,0.00,Acu-Link.com,2013-03-27 19:02:00,
2013-03-27 15:17:00,57.0,25.9,30.17,WNW,292,4.2,-999.0,30,-99.99,,,0.00,Acu-Link.com,2013-03-27 19:17:00,
2013-03-27 15:33:00,55.0,24.1,30.16,WSW,247,1.7,-999.0,30,-99.99,,,0.00,Acu-Link.com,2013-03-27 19:33:00,
2013-03-27 15:48:00,59.4,24.5,30.16,NNW,337,3.2,-999.0,26,-99.99,,,0.00,Acu-Link.com,2013-03-27 19:48:00,
2013-03-27 16:03:00,54.7,23.1,30.15,NNE,22,2.7,-999.0,29,-99.99,,,0.00,Acu-Link.com,2013-03-27 20:03:00,
2013-03-27 16:18:00,58.6,24.7,30.14,ESE,112,0.0,-999.0,27,-99.99,,,0.00,Acu-Link.com,2013-03-27 20:18:00,
2013-03-27 16:33:00,56.7,27.2,30.14,SW,225,1.7,-999.0,32,-99.99,,,0.00,Acu-Link.com,2013-03-27 20:33:00,
2013-03-27 16:49:00,58.3,23.6,30.14,ENE,67,1.1,-999.0,26,-99.99,,,0.00,Acu-Link.com,2013-03-27 20:49:00,
2013-03-27 17:04:00,59.4,22.6,30.13,ESE,112,2.7,-999.0,24,-99.99,,,0.00,Acu-Link.com,2013-03-27 21:04:00,
2013-03-27 17:19:00,58.5,24.6,30.13,NNW,337,2.7,-999.0,27,-99.99,,,0.00,Acu-Link.com,2013-03-27 21:19:00,
2013-03-27 17:34:00,58.3,25.3,30.12,West,270,0.0,-999.0,28,-99.99,,,0.00,Acu-Link.com,2013-03-27 21:34:00,
2013-03-27 17:50:00,57.4,23.7,30.11,South,180,0.0,-999.0,27,-99.99,,,0.00,Acu-Link.com,2013-03-27 21:50:00,
2013-03-27 18:05:00,56.8,22.3,30.11,West,270,0.0,-999.0,26,-99.99,,,0.00,Acu-Link.com,2013-03-27 22:05:00,
2013-03-27 18:20:00,56.1,25.1,30.11,South,180,1.7,-999.0,30,-99.99,,,0.00,Acu-Link.com,2013-03-27 22:20:00,
2013-03-27 18:51:00,55.0,23.3,30.11,SSW,202,0.0,-999.0,29,-99.99,,,0.00,Acu-Link.com,2013-03-27 22:51:00,
2013-03-27 19:06:00,54.1,23.4,30.11,West,270,0.0,-999.0,30,-99.99,,,0.00,Acu-Link.com,2013-03-27 23:06:00,
2013-03-27 19:22:00,53.6,22.9,30.12,West,270,2.2,-999.0,30,-99.99,,,0.00,Acu-Link.com,2013-03-27 23:22:00,
2013-03-27 19:37:00,52.5,22.0,30.12,WNW,292,0.0,-999.0,30,-99.99,,,0.00,Acu-Link.com,2013-03-27 23:37:00,
2013-03-27 19:52:00,51.3,22.5,30.12,WSW,247,1.7,-999.0,32,-99.99,,,0.00,Acu-Link.com,2013-03-27 23:52:00,
2013-03-27 20:08:00,50.4,22.4,30.13,WNW,292,1.7,-999.0,33,-99.99,,,0.00,Acu-Link.com,2013-03-28 00:08:00,
2013-03-27 20:23:00,49.6,23.1,30.14,NNW,337,1.1,-999.0,35,-99.99,,,0.00,Acu-Link.com,2013-03-28 00:23:00,
2013-03-27 20:38:00,48.7,22.3,30.15,NW,315,2.2,-999.0,35,-99.99,,,0.00,Acu-Link.com,2013-03-28 00:38:00,
2013-03-27 20:53:00,48.6,20.1,30.15,NNW,337,2.7,-999.0,32,-99.99,,,0.00,Acu-Link.com,2013-03-28 00:53:00,
2013-03-27 21:09:00,47.8,20.1,30.16,NNW,337,2.2,-999.0,33,-99.99,,,0.00,Acu-Link.com,2013-03-28 01:09:00,
2013-03-27 21:24:00,47.7,20.0,30.17,WNW,292,2.7,-999.0,33,-99.99,,,0.00,Acu-Link.com,2013-03-28 01:24:00,
2013-03-27 21:39:00,46.4,19.6,30.17,WNW,292,0.0,-999.0,34,-99.99,,,0.00,Acu-Link.com,2013-03-28 01:39:00,
2013-03-27 21:54:00,45.1,19.8,30.18,SW,225,0.0,-999.0,36,-99.99,,,0.00,Acu-Link.com,2013-03-28 01:54:00,
2013-03-27 22:10:00,43.2,23.8,30.19,SSW,202,0.0,-999.0,46,-99.99,,,0.00,Acu-Link.com,2013-03-28 02:10:00,
2013-03-27 22:25:00,42.3,22.0,30.19,WNW,292,0.0,-999.0,44,-99.99,,,0.00,Acu-Link.com,2013-03-28 02:25:00,
2013-03-27 22:40:00,41.5,23.3,30.20,WNW,292,0.0,-999.0,48,-99.99,,,0.00,Acu-Link.com,2013-03-28 02:40:00,
2013-03-27 22:55:00,39.6,24.8,30.20,South,180,0.0,-999.0,55,-99.99,,,0.00,Acu-Link.com,2013-03-28 02:55:00,
2013-03-27 23:26:00,38.7,25.2,30.20,South,180,0.0,-999.0,58,-99.99,,,0.00,Acu-Link.com,2013-03-28 03:26:00,
2013-03-27 23:41:00,37.8,26.0,30.21,South,180,0.0,-999.0,62,-99.99,,,0.00,Acu-Link.com,2013-03-28 03:41:00,
2013-03-27 23:57:00,36.7,26.4,30.21,SSE,157,0.0,-999.0,66,-99.99,,,0.00,Acu-Link.com,2013-03-28 03:57:00,